Gagnef Airport


Codes: ESVG/
Name: Gagnef Airport
City: Djuras
Country: Sweden
Elevation: 0 ft.

Photos at Gagnef Airport


   Photos courtesy of SpottingLog. You can add your own sightings and photos by signing up for a free trial today.



No photos found.

Weather at Gagnef Airport


Time (UTC)DescriptionTempratureWindCloud coverageVisibilityPressureHumidity
15-Apr-2024 18:00Clear Sky8°C4 mph, N6%10000m1002hPa67%
15-Apr-2024 21:00Clear Sky5°C4 mph, N6%10000m1002hPa72%
16-Apr-2024 00:00Clear Sky2°C4 mph, NW7%10000m1002hPa81%
16-Apr-2024 03:00Overcast Clouds-0°C4 mph, N100%10000m1002hPa92%
16-Apr-2024 06:00Light Snow2°C7 mph, N100%1686m1002hPa93%
16-Apr-2024 09:00Light Snow3°C7 mph, NE100%6123m1003hPa80%
16-Apr-2024 12:00Light Rain5°C7 mph, NE100%2979m1003hPa65%
16-Apr-2024 15:00Light Rain5°C9 mph, N100%10000m1003hPa64%
16-Apr-2024 18:00Light Snow2°C7 mph, N95%10000m1005hPa78%
16-Apr-2024 21:00Few Clouds-0°C4 mph, NW14%10000m1006hPa92%
17-Apr-2024 00:00Few Clouds-1°C4 mph, NW14%10000m1006hPa94%
17-Apr-2024 03:00Scattered Clouds-1°C4 mph, NW40%10000m1007hPa90%
17-Apr-2024 06:00Scattered Clouds1°C9 mph, N27%10000m1008hPa72%
17-Apr-2024 09:00Scattered Clouds4°C9 mph, N48%10000m1008hPa49%
17-Apr-2024 12:00Light Rain5°C11 mph, N74%10000m1010hPa48%
17-Apr-2024 15:00Overcast Clouds4°C9 mph, N100%10000m1010hPa50%
17-Apr-2024 18:00Light Snow1°C4 mph, NE90%10000m1012hPa77%
17-Apr-2024 21:00Broken Clouds-1°C2 mph, N56%0m1014hPa97%
18-Apr-2024 00:00Light Snow-0°C2 mph, NE79%10000m1015hPa85%
18-Apr-2024 03:00Overcast Clouds-1°C2 mph, N99%10000m1016hPa84%
18-Apr-2024 06:00Broken Clouds0°C4 mph, N62%10000m1018hPa71%
18-Apr-2024 09:00Broken Clouds3°C4 mph, NE84%10000m1017hPa50%
18-Apr-2024 12:00Overcast Clouds5°C4 mph, N93%7533m1017hPa45%
18-Apr-2024 15:00Light Rain5°C4 mph, N100%10000m1016hPa43%
18-Apr-2024 18:00Broken Clouds1°C9 mph, E75%10000m1017hPa79%
18-Apr-2024 21:00Clear Sky-2°C7 mph, SE9%10000m1017hPa84%
19-Apr-2024 00:00Scattered Clouds-3°C2 mph, SE34%10000m1016hPa84%
19-Apr-2024 03:00Broken Clouds-3°C2 mph, E75%10000m1014hPa81%
19-Apr-2024 06:00Broken Clouds-1°C4 mph, E82%10000m1013hPa68%
19-Apr-2024 09:00Overcast Clouds3°C4 mph, E95%10000m1012hPa53%
19-Apr-2024 12:00Overcast Clouds4°C4 mph, NE98%10000m1010hPa45%
19-Apr-2024 15:00Overcast Clouds5°C4 mph, N100%10000m1009hPa41%
19-Apr-2024 18:00Overcast Clouds1°C7 mph, E100%10000m1010hPa61%
19-Apr-2024 21:00Scattered Clouds-3°C2 mph, E42%10000m1011hPa77%
20-Apr-2024 00:00Scattered Clouds-3°C0 mph, NE38%10000m1010hPa74%
20-Apr-2024 03:00Overcast Clouds-2°C0 mph, W86%10000m1010hPa69%
20-Apr-2024 06:00Overcast Clouds-0°C2 mph, W91%10000m1011hPa75%
20-Apr-2024 09:00Overcast Clouds3°C4 mph, NW98%10000m1011hPa65%
20-Apr-2024 12:00Overcast Clouds6°C4 mph, NW93%10000m1011hPa53%
20-Apr-2024 15:00Overcast Clouds7°C4 mph, NW89%10000m1011hPa48%